sensor_id;sensor_type;location;lat;lon;timestamp;P1;durP1;ratioP1;P2;durP2;ratioP2
21412;SDS011;10867;45.084;5.732;2022-08-07T00:02:02;2.60;;;2.40;;
21412;SDS011;10867;45.084;5.732;2022-08-07T00:04:28;3.10;;;2.80;;
21412;SDS011;10867;45.084;5.732;2022-08-07T00:06:54;3.85;;;2.67;;
21412;SDS011;10867;45.084;5.732;2022-08-07T00:09:20;2.65;;;2.45;;
21412;SDS011;10867;45.084;5.732;2022-08-07T00:11:46;2.90;;;2.45;;
21412;SDS011;10867;45.084;5.732;2022-08-07T00:14:12;3.30;;;2.60;;
21412;SDS011;10867;45.084;5.732;2022-08-07T00:16:39;3.50;;;2.85;;
21412;SDS011;10867;45.084;5.732;2022-08-07T00:19:05;4.50;;;2.90;;
21412;SDS011;10867;45.084;5.732;2022-08-07T00:21:31;3.45;;;2.63;;
21412;SDS011;10867;45.084;5.732;2022-08-07T00:23:57;3.50;;;2.70;;
21412;SDS011;10867;45.084;5.732;2022-08-07T00:26:23;3.07;;;2.73;;
21412;SDS011;10867;45.084;5.732;2022-08-07T00:28:49;3.95;;;2.90;;
21412;SDS011;10867;45.084;5.732;2022-08-07T00:31:15;3.20;;;2.90;;
21412;SDS011;10867;45.084;5.732;2022-08-07T00:33:41;3.05;;;2.75;;
21412;SDS011;10867;45.084;5.732;2022-08-07T00:36:08;3.20;;;2.85;;
21412;SDS011;10867;45.084;5.732;2022-08-07T00:38:34;3.63;;;3.00;;
21412;SDS011;10867;45.084;5.732;2022-08-07T00:41:01;5.70;;;3.10;;
21412;SDS011;10867;45.084;5.732;2022-08-07T00:43:27;3.47;;;3.05;;
21412;SDS011;10867;45.084;5.732;2022-08-07T00:45:53;3.80;;;3.15;;
21412;SDS011;10867;45.084;5.732;2022-08-07T00:48:19;3.53;;;2.80;;
21412;SDS011;10867;45.084;5.732;2022-08-07T00:50:46;3.95;;;3.10;;
21412;SDS011;10867;45.084;5.732;2022-08-07T00:53:12;3.70;;;2.97;;
21412;SDS011;10867;45.084;5.732;2022-08-07T00:55:38;4.95;;;2.80;;
21412;SDS011;10867;45.084;5.732;2022-08-07T00:58:04;4.80;;;3.08;;
21412;SDS011;10867;45.084;5.732;2022-08-07T01:00:30;4.35;;;2.97;;
21412;SDS011;10867;45.084;5.732;2022-08-07T01:02:57;3.37;;;3.00;;
21412;SDS011;10867;45.084;5.732;2022-08-07T01:05:23;4.25;;;2.92;;
21412;SDS011;10867;45.084;5.732;2022-08-07T01:07:50;3.03;;;2.60;;
21412;SDS011;10867;45.084;5.732;2022-08-07T01:10:16;5.05;;;2.83;;
21412;SDS011;10867;45.084;5.732;2022-08-07T01:12:42;4.65;;;2.95;;
21412;SDS011;10867;45.084;5.732;2022-08-07T01:15:09;3.15;;;2.85;;
21412;SDS011;10867;45.084;5.732;2022-08-07T01:17:35;3.60;;;2.80;;
21412;SDS011;10867;45.084;5.732;2022-08-07T01:20:06;3.15;;;2.65;;
21412;SDS011;10867;45.084;5.732;2022-08-07T01:22:33;3.58;;;2.90;;
21412;SDS011;10867;45.084;5.732;2022-08-07T01:25:00;5.15;;;2.70;;
21412;SDS011;10867;45.084;5.732;2022-08-07T01:27:27;4.05;;;3.00;;
21412;SDS011;10867;45.084;5.732;2022-08-07T01:29:53;4.03;;;2.85;;
21412;SDS011;10867;45.084;5.732;2022-08-07T01:32:19;3.53;;;2.60;;
21412;SDS011;10867;45.084;5.732;2022-08-07T01:34:45;3.30;;;2.90;;
21412;SDS011;10867;45.084;5.732;2022-08-07T01:37:11;3.20;;;2.90;;
21412;SDS011;10867;45.084;5.732;2022-08-07T01:39:41;3.85;;;3.10;;
21412;SDS011;10867;45.084;5.732;2022-08-07T01:42:07;3.13;;;2.83;;
21412;SDS011;10867;45.084;5.732;2022-08-07T01:44:33;3.55;;;3.00;;
21412;SDS011;10867;45.084;5.732;2022-08-07T01:46:59;3.50;;;2.60;;
21412;SDS011;10867;45.084;5.732;2022-08-07T01:49:25;4.15;;;3.08;;
21412;SDS011;10867;45.084;5.732;2022-08-07T01:51:51;3.83;;;3.00;;
21412;SDS011;10867;45.084;5.732;2022-08-07T01:54:18;4.65;;;3.45;;
21412;SDS011;10867;45.084;5.732;2022-08-07T01:56:53;3.53;;;3.20;;
21412;SDS011;10867;45.084;5.732;2022-08-07T01:59:26;3.30;;;3.00;;
21412;SDS011;10867;45.084;5.732;2022-08-07T02:01:55;3.95;;;3.47;;
21412;SDS011;10867;45.084;5.732;2022-08-07T02:04:31;3.65;;;3.35;;
21412;SDS011;10867;45.084;5.732;2022-08-07T02:07:01;4.07;;;3.55;;
21412;SDS011;10867;45.084;5.732;2022-08-07T02:09:28;4.40;;;3.30;;
21412;SDS011;10867;45.084;5.732;2022-08-07T02:11:54;5.68;;;3.65;;
21412;SDS011;10867;45.084;5.732;2022-08-07T02:14:21;4.60;;;3.45;;
21412;SDS011;10867;45.084;5.732;2022-08-07T02:16:48;3.53;;;3.03;;
21412;SDS011;10867;45.084;5.732;2022-08-07T02:19:15;4.50;;;3.05;;
21412;SDS011;10867;45.084;5.732;2022-08-07T02:21:42;4.30;;;3.10;;
21412;SDS011;10867;45.084;5.732;2022-08-07T02:24:09;3.83;;;3.53;;
21412;SDS011;10867;45.084;5.732;2022-08-07T02:26:36;3.70;;;3.40;;
21412;SDS011;10867;45.084;5.732;2022-08-07T02:29:04;3.55;;;3.05;;
21412;SDS011;10867;45.084;5.732;2022-08-07T02:31:31;4.57;;;3.40;;
21412;SDS011;10867;45.084;5.732;2022-08-07T02:33:58;3.42;;;3.13;;
21412;SDS011;10867;45.084;5.732;2022-08-07T02:36:25;3.80;;;3.50;;
21412;SDS011;10867;45.084;5.732;2022-08-07T02:38:51;4.07;;;3.67;;
21412;SDS011;10867;45.084;5.732;2022-08-07T02:41:18;4.00;;;3.60;;
21412;SDS011;10867;45.084;5.732;2022-08-07T02:43:44;3.63;;;3.30;;
21412;SDS011;10867;45.084;5.732;2022-08-07T02:46:11;3.92;;;3.50;;
21412;SDS011;10867;45.084;5.732;2022-08-07T02:48:37;3.60;;;3.25;;
21412;SDS011;10867;45.084;5.732;2022-08-07T02:51:05;3.70;;;3.33;;
21412;SDS011;10867;45.084;5.732;2022-08-07T02:53:32;4.32;;;3.38;;
21412;SDS011;10867;45.084;5.732;2022-08-07T02:55:59;4.03;;;3.45;;
21412;SDS011;10867;45.084;5.732;2022-08-07T02:58:28;4.70;;;3.38;;
21412;SDS011;10867;45.084;5.732;2022-08-07T03:00:56;5.30;;;3.38;;
21412;SDS011;10867;45.084;5.732;2022-08-07T03:03:23;4.20;;;3.50;;
21412;SDS011;10867;45.084;5.732;2022-08-07T03:05:50;4.03;;;3.37;;
21412;SDS011;10867;45.084;5.732;2022-08-07T03:08:17;3.53;;;3.22;;
21412;SDS011;10867;45.084;5.732;2022-08-07T03:10:43;4.40;;;3.50;;
21412;SDS011;10867;45.084;5.732;2022-08-07T03:13:10;3.90;;;3.50;;
21412;SDS011;10867;45.084;5.732;2022-08-07T03:15:37;4.40;;;3.30;;
21412;SDS011;10867;45.084;5.732;2022-08-07T03:18:03;3.90;;;3.50;;
21412;SDS011;10867;45.084;5.732;2022-08-07T03:20:30;4.35;;;3.20;;
21412;SDS011;10867;45.084;5.732;2022-08-07T03:22:56;3.67;;;3.38;;
21412;SDS011;10867;45.084;5.732;2022-08-07T03:25:23;4.05;;;3.22;;
21412;SDS011;10867;45.084;5.732;2022-08-07T03:27:50;3.90;;;3.50;;
21412;SDS011;10867;45.084;5.732;2022-08-07T03:30:17;3.83;;;3.53;;
21412;SDS011;10867;45.084;5.732;2022-08-07T03:32:43;4.00;;;3.60;;
21412;SDS011;10867;45.084;5.732;2022-08-07T03:35:11;4.07;;;3.67;;
21412;SDS011;10867;45.084;5.732;2022-08-07T03:37:38;3.75;;;3.40;;
21412;SDS011;10867;45.084;5.732;2022-08-07T03:40:04;3.90;;;3.50;;
21412;SDS011;10867;45.084;5.732;2022-08-07T03:42:32;4.30;;;3.50;;
21412;SDS011;10867;45.084;5.732;2022-08-07T03:44:59;4.30;;;3.47;;
21412;SDS011;10867;45.084;5.732;2022-08-07T03:47:25;4.32;;;3.72;;
21412;SDS011;10867;45.084;5.732;2022-08-07T03:49:52;3.80;;;3.40;;
21412;SDS011;10867;45.084;5.732;2022-08-07T03:52:19;4.47;;;3.15;;
21412;SDS011;10867;45.084;5.732;2022-08-07T03:54:46;3.60;;;3.30;;
21412;SDS011;10867;45.084;5.732;2022-08-07T03:57:12;4.30;;;3.58;;
21412;SDS011;10867;45.084;5.732;2022-08-07T03:59:39;4.22;;;3.65;;
21412;SDS011;10867;45.084;5.732;2022-08-07T04:02:06;3.92;;;3.63;;
21412;SDS011;10867;45.084;5.732;2022-08-07T04:04:32;3.90;;;3.60;;
21412;SDS011;10867;45.084;5.732;2022-08-07T04:06:59;4.28;;;3.88;;
21412;SDS011;10867;45.084;5.732;2022-08-07T04:09:25;3.60;;;3.30;;
21412;SDS011;10867;45.084;5.732;2022-08-07T04:11:52;3.80;;;3.50;;
21412;SDS011;10867;45.084;5.732;2022-08-07T04:14:19;4.25;;;3.75;;
21412;SDS011;10867;45.084;5.732;2022-08-07T04:16:46;3.95;;;3.60;;
21412;SDS011;10867;45.084;5.732;2022-08-07T04:19:13;4.28;;;3.83;;
21412;SDS011;10867;45.084;5.732;2022-08-07T04:21:39;4.00;;;3.60;;
21412;SDS011;10867;45.084;5.732;2022-08-07T04:24:06;4.63;;;3.88;;
21412;SDS011;10867;45.084;5.732;2022-08-07T04:26:37;4.10;;;3.72;;
21412;SDS011;10867;45.084;5.732;2022-08-07T04:29:05;4.10;;;3.70;;
21412;SDS011;10867;45.084;5.732;2022-08-07T04:31:35;4.20;;;3.80;;
21412;SDS011;10867;45.084;5.732;2022-08-07T04:34:02;4.10;;;3.80;;
21412;SDS011;10867;45.084;5.732;2022-08-07T04:36:28;4.80;;;3.78;;
21412;SDS011;10867;45.084;5.732;2022-08-07T04:38:54;4.05;;;3.67;;
21412;SDS011;10867;45.084;5.732;2022-08-07T04:41:20;4.00;;;3.70;;
21412;SDS011;10867;45.084;5.732;2022-08-07T04:43:47;4.47;;;3.95;;
21412;SDS011;10867;45.084;5.732;2022-08-07T04:51:37;4.72;;;4.20;;
21412;SDS011;10867;45.084;5.732;2022-08-07T04:56:43;6.47;;;4.00;;
21412;SDS011;10867;45.084;5.732;2022-08-07T04:59:19;4.00;;;3.70;;
21412;SDS011;10867;45.084;5.732;2022-08-07T05:01:48;4.38;;;3.70;;
21412;SDS011;10867;45.084;5.732;2022-08-07T05:04:21;4.00;;;3.70;;
21412;SDS011;10867;45.084;5.732;2022-08-07T05:09:56;3.88;;;3.53;;
21412;SDS011;10867;45.084;5.732;2022-08-07T05:12:29;3.97;;;3.65;;
21412;SDS011;10867;45.084;5.732;2022-08-07T05:15:02;4.33;;;3.90;;
21412;SDS011;10867;45.084;5.732;2022-08-07T05:17:40;3.80;;;3.50;;
21412;SDS011;10867;45.084;5.732;2022-08-07T05:20:07;4.30;;;3.90;;
21412;SDS011;10867;45.084;5.732;2022-08-07T05:22:36;4.70;;;3.70;;
21412;SDS011;10867;45.084;5.732;2022-08-07T05:25:03;5.03;;;3.88;;
21412;SDS011;10867;45.084;5.732;2022-08-07T05:27:29;3.92;;;3.58;;
21412;SDS011;10867;45.084;5.732;2022-08-07T05:29:56;4.33;;;4.00;;
21412;SDS011;10867;45.084;5.732;2022-08-07T05:32:23;6.00;;;3.97;;
21412;SDS011;10867;45.084;5.732;2022-08-07T05:34:50;4.70;;;4.30;;
21412;SDS011;10867;45.084;5.732;2022-08-07T05:37:17;4.35;;;3.95;;
21412;SDS011;10867;45.084;5.732;2022-08-07T05:39:44;4.43;;;3.93;;
21412;SDS011;10867;45.084;5.732;2022-08-07T05:42:11;4.65;;;4.13;;
21412;SDS011;10867;45.084;5.732;2022-08-07T05:44:38;4.88;;;4.00;;
21412;SDS011;10867;45.084;5.732;2022-08-07T05:47:05;4.40;;;4.00;;
21412;SDS011;10867;45.084;5.732;2022-08-07T05:49:33;7.60;;;4.80;;
21412;SDS011;10867;45.084;5.732;2022-08-07T05:51:59;6.40;;;4.97;;
21412;SDS011;10867;45.084;5.732;2022-08-07T05:54:25;5.25;;;4.50;;
21412;SDS011;10867;45.084;5.732;2022-08-07T05:56:52;5.65;;;4.50;;
21412;SDS011;10867;45.084;5.732;2022-08-07T05:59:19;5.80;;;4.45;;
21412;SDS011;10867;45.084;5.732;2022-08-07T06:01:47;5.85;;;4.25;;
21412;SDS011;10867;45.084;5.732;2022-08-07T06:04:14;4.65;;;4.22;;
21412;SDS011;10867;45.084;5.732;2022-08-07T06:06:41;4.57;;;4.10;;
21412;SDS011;10867;45.084;5.732;2022-08-07T06:09:07;5.65;;;4.45;;
21412;SDS011;10867;45.084;5.732;2022-08-07T06:11:34;5.20;;;4.70;;
21412;SDS011;10867;45.084;5.732;2022-08-07T06:14:00;4.63;;;4.22;;
21412;SDS011;10867;45.084;5.732;2022-08-07T06:16:27;6.05;;;5.35;;
21412;SDS011;10867;45.084;5.732;2022-08-07T06:18:58;6.32;;;5.72;;
21412;SDS011;10867;45.084;5.732;2022-08-07T06:21:24;6.20;;;5.60;;
21412;SDS011;10867;45.084;5.732;2022-08-07T06:23:51;6.53;;;5.70;;
21412;SDS011;10867;45.084;5.732;2022-08-07T06:26:17;5.80;;;5.10;;
21412;SDS011;10867;45.084;5.732;2022-08-07T06:28:47;5.85;;;5.22;;
21412;SDS011;10867;45.084;5.732;2022-08-07T06:31:13;6.68;;;5.97;;
21412;SDS011;10867;45.084;5.732;2022-08-07T06:33:39;6.70;;;5.93;;
21412;SDS011;10867;45.084;5.732;2022-08-07T06:36:05;5.78;;;5.28;;
21412;SDS011;10867;45.084;5.732;2022-08-07T06:38:31;6.65;;;6.03;;
21412;SDS011;10867;45.084;5.732;2022-08-07T06:40:57;6.07;;;5.57;;
21412;SDS011;10867;45.084;5.732;2022-08-07T06:43:25;5.70;;;5.10;;
21412;SDS011;10867;45.084;5.732;2022-08-07T06:45:53;5.63;;;5.03;;
21412;SDS011;10867;45.084;5.732;2022-08-07T06:48:19;4.85;;;4.45;;
21412;SDS011;10867;45.084;5.732;2022-08-07T06:50:45;7.13;;;4.63;;
21412;SDS011;10867;45.084;5.732;2022-08-07T06:53:12;4.63;;;4.22;;
21412;SDS011;10867;45.084;5.732;2022-08-07T06:55:39;4.13;;;3.80;;
21412;SDS011;10867;45.084;5.732;2022-08-07T06:58:06;4.75;;;3.63;;
21412;SDS011;10867;45.084;5.732;2022-08-07T07:00:33;4.18;;;3.78;;
21412;SDS011;10867;45.084;5.732;2022-08-07T07:03:01;4.85;;;3.90;;
21412;SDS011;10867;45.084;5.732;2022-08-07T07:05:27;4.05;;;3.60;;
21412;SDS011;10867;45.084;5.732;2022-08-07T07:07:54;4.43;;;3.75;;
21412;SDS011;10867;45.084;5.732;2022-08-07T07:10:26;4.07;;;3.55;;
21412;SDS011;10867;45.084;5.732;2022-08-07T07:12:53;3.97;;;3.67;;
21412;SDS011;10867;45.084;5.732;2022-08-07T07:15:22;4.70;;;3.47;;
21412;SDS011;10867;45.084;5.732;2022-08-07T07:17:57;4.47;;;3.30;;
21412;SDS011;10867;45.084;5.732;2022-08-07T07:20:31;3.75;;;3.40;;
21412;SDS011;10867;45.084;5.732;2022-08-07T07:22:58;3.93;;;3.17;;
21412;SDS011;10867;45.084;5.732;2022-08-07T07:25:24;3.97;;;3.50;;
21412;SDS011;10867;45.084;5.732;2022-08-07T07:30:25;4.03;;;3.63;;
21412;SDS011;10867;45.084;5.732;2022-08-07T07:32:52;3.80;;;3.50;;
21412;SDS011;10867;45.084;5.732;2022-08-07T07:35:19;3.80;;;3.40;;
21412;SDS011;10867;45.084;5.732;2022-08-07T07:37:47;3.42;;;3.10;;
21412;SDS011;10867;45.084;5.732;2022-08-07T07:40:15;3.80;;;3.20;;
21412;SDS011;10867;45.084;5.732;2022-08-07T07:42:42;5.18;;;3.58;;
21412;SDS011;10867;45.084;5.732;2022-08-07T07:45:08;3.70;;;3.33;;
21412;SDS011;10867;45.084;5.732;2022-08-07T07:47:38;5.35;;;4.00;;
21412;SDS011;10867;45.084;5.732;2022-08-07T07:50:06;5.43;;;3.38;;
21412;SDS011;10867;45.084;5.732;2022-08-07T07:52:32;4.00;;;3.50;;
21412;SDS011;10867;45.084;5.732;2022-08-07T07:54:59;5.90;;;3.60;;
21412;SDS011;10867;45.084;5.732;2022-08-07T07:57:25;4.90;;;3.53;;
21412;SDS011;10867;45.084;5.732;2022-08-07T07:59:52;5.18;;;3.70;;
21412;SDS011;10867;45.084;5.732;2022-08-07T08:02:19;5.70;;;3.90;;
21412;SDS011;10867;45.084;5.732;2022-08-07T08:04:45;4.18;;;3.75;;
21412;SDS011;10867;45.084;5.732;2022-08-07T08:07:12;7.23;;;3.93;;
21412;SDS011;10867;45.084;5.732;2022-08-07T08:09:39;4.45;;;3.58;;
21412;SDS011;10867;45.084;5.732;2022-08-07T08:12:06;4.57;;;3.50;;
21412;SDS011;10867;45.084;5.732;2022-08-07T08:14:33;4.07;;;3.63;;
21412;SDS011;10867;45.084;5.732;2022-08-07T08:17:00;4.93;;;3.50;;
21412;SDS011;10867;45.084;5.732;2022-08-07T08:19:27;4.13;;;3.50;;
21412;SDS011;10867;45.084;5.732;2022-08-07T08:21:55;3.80;;;3.50;;
21412;SDS011;10867;45.084;5.732;2022-08-07T08:24:41;4.13;;;3.40;;
21412;SDS011;10867;45.084;5.732;2022-08-07T08:27:27;3.87;;;3.57;;
21412;SDS011;10867;45.084;5.732;2022-08-07T08:29:55;4.07;;;3.40;;
21412;SDS011;10867;45.084;5.732;2022-08-07T08:32:23;3.80;;;3.50;;
21412;SDS011;10867;45.084;5.732;2022-08-07T08:34:50;4.80;;;3.50;;
21412;SDS011;10867;45.084;5.732;2022-08-07T08:37:18;3.72;;;3.42;;
21412;SDS011;10867;45.084;5.732;2022-08-07T08:39:44;4.05;;;3.50;;
21412;SDS011;10867;45.084;5.732;2022-08-07T08:42:29;3.50;;;3.20;;
21412;SDS011;10867;45.084;5.732;2022-08-07T08:50:00;4.57;;;3.80;;
21412;SDS011;10867;45.084;5.732;2022-08-07T08:52:32;5.27;;;3.60;;
21412;SDS011;10867;45.084;5.732;2022-08-07T08:55:11;5.18;;;3.30;;
21412;SDS011;10867;45.084;5.732;2022-08-07T08:57:41;3.60;;;3.30;;
21412;SDS011;10867;45.084;5.732;2022-08-07T09:00:09;3.60;;;3.30;;
21412;SDS011;10867;45.084;5.732;2022-08-07T09:07:50;4.20;;;3.20;;
21412;SDS011;10867;45.084;5.732;2022-08-07T09:15:43;3.90;;;2.92;;
21412;SDS011;10867;45.084;5.732;2022-08-07T09:21:00;3.97;;;3.28;;
21412;SDS011;10867;45.084;5.732;2022-08-07T09:26:00;4.45;;;3.55;;
21412;SDS011;10867;45.084;5.732;2022-08-07T09:28:33;4.25;;;3.60;;
21412;SDS011;10867;45.084;5.732;2022-08-07T09:31:06;4.72;;;3.42;;
21412;SDS011;10867;45.084;5.732;2022-08-07T09:36:15;4.07;;;3.50;;
21412;SDS011;10867;45.084;5.732;2022-08-07T09:39:02;3.80;;;3.40;;
21412;SDS011;10867;45.084;5.732;2022-08-07T09:42:33;4.75;;;3.50;;
21412;SDS011;10867;45.084;5.732;2022-08-07T09:55:17;3.70;;;3.35;;
21412;SDS011;10867;45.084;5.732;2022-08-07T10:00:38;6.13;;;3.60;;
21412;SDS011;10867;45.084;5.732;2022-08-07T10:23:58;4.93;;;3.88;;
21412;SDS011;10867;45.084;5.732;2022-08-07T10:26:44;4.10;;;3.70;;
21412;SDS011;10867;45.084;5.732;2022-08-07T10:31:57;4.20;;;3.80;;
21412;SDS011;10867;45.084;5.732;2022-08-07T10:42:41;4.72;;;4.22;;
21412;SDS011;10867;45.084;5.732;2022-08-07T10:45:23;5.00;;;3.78;;
21412;SDS011;10867;45.084;5.732;2022-08-07T10:50:30;4.22;;;3.85;;
21412;SDS011;10867;45.084;5.732;2022-08-07T10:53:02;4.78;;;3.65;;
21412;SDS011;10867;45.084;5.732;2022-08-07T10:55:30;4.93;;;4.20;;
21412;SDS011;10867;45.084;5.732;2022-08-07T11:00:48;3.97;;;3.58;;
21412;SDS011;10867;45.084;5.732;2022-08-07T11:03:21;4.13;;;3.72;;
21412;SDS011;10867;45.084;5.732;2022-08-07T11:11:08;4.13;;;3.70;;
21412;SDS011;10867;45.084;5.732;2022-08-07T11:13:37;4.28;;;3.72;;
21412;SDS011;10867;45.084;5.732;2022-08-07T11:16:07;4.23;;;3.83;;
21412;SDS011;10867;45.084;5.732;2022-08-07T11:18:40;3.97;;;3.58;;
21412;SDS011;10867;45.084;5.732;2022-08-07T11:21:17;3.72;;;3.40;;
21412;SDS011;10867;45.084;5.732;2022-08-07T11:29:02;4.25;;;3.85;;
21412;SDS011;10867;45.084;5.732;2022-08-07T11:37:00;5.00;;;4.32;;
21412;SDS011;10867;45.084;5.732;2022-08-07T11:44:57;4.22;;;3.75;;
21412;SDS011;10867;45.084;5.732;2022-08-07T11:47:34;4.38;;;3.97;;
21412;SDS011;10867;45.084;5.732;2022-08-07T11:52:49;4.32;;;3.92;;
21412;SDS011;10867;45.084;5.732;2022-08-07T11:58:04;4.38;;;3.97;;
21412;SDS011;10867;45.084;5.732;2022-08-07T12:08:19;5.93;;;3.63;;
21412;SDS011;10867;45.084;5.732;2022-08-07T12:11:06;3.80;;;3.50;;
21412;SDS011;10867;45.084;5.732;2022-08-07T12:13:41;3.80;;;3.50;;
21412;SDS011;10867;45.084;5.732;2022-08-07T12:16:12;3.92;;;3.50;;
21412;SDS011;10867;45.084;5.732;2022-08-07T12:21:11;3.67;;;3.38;;
21412;SDS011;10867;45.084;5.732;2022-08-07T12:23:58;3.80;;;3.50;;
21412;SDS011;10867;45.084;5.732;2022-08-07T12:26:46;3.60;;;3.30;;
21412;SDS011;10867;45.084;5.732;2022-08-07T12:29:18;4.03;;;3.70;;
21412;SDS011;10867;45.084;5.732;2022-08-07T12:31:50;3.58;;;3.10;;
21412;SDS011;10867;45.084;5.732;2022-08-07T12:34:19;3.83;;;3.40;;
21412;SDS011;10867;45.084;5.732;2022-08-07T12:36:46;3.50;;;3.20;;
21412;SDS011;10867;45.084;5.732;2022-08-07T12:39:13;3.90;;;3.50;;
21412;SDS011;10867;45.084;5.732;2022-08-07T12:41:40;3.90;;;3.60;;
21412;SDS011;10867;45.084;5.732;2022-08-07T12:44:07;3.70;;;3.40;;
21412;SDS011;10867;45.084;5.732;2022-08-07T12:52:13;4.05;;;3.42;;
21412;SDS011;10867;45.084;5.732;2022-08-07T12:57:06;3.72;;;3.35;;
21412;SDS011;10867;45.084;5.732;2022-08-07T12:59:32;3.60;;;3.30;;
21412;SDS011;10867;45.084;5.732;2022-08-07T13:07:05;3.30;;;3.00;;
21412;SDS011;10867;45.084;5.732;2022-08-07T13:12:24;6.17;;;3.60;;
21412;SDS011;10867;45.084;5.732;2022-08-07T13:15:00;5.80;;;3.38;;
21412;SDS011;10867;45.084;5.732;2022-08-07T13:22:40;3.50;;;3.20;;
21412;SDS011;10867;45.084;5.732;2022-08-07T13:25:10;3.42;;;3.13;;
21412;SDS011;10867;45.084;5.732;2022-08-07T13:27:37;3.60;;;3.30;;
21412;SDS011;10867;45.084;5.732;2022-08-07T13:30:05;3.30;;;3.00;;
21412;SDS011;10867;45.084;5.732;2022-08-07T13:33:06;3.03;;;2.70;;
21412;SDS011;10867;45.084;5.732;2022-08-07T13:35:31;4.47;;;2.93;;
21412;SDS011;10867;45.084;5.732;2022-08-07T13:40:38;3.03;;;2.75;;
21412;SDS011;10867;45.084;5.732;2022-08-07T13:43:09;3.25;;;2.97;;
21412;SDS011;10867;45.084;5.732;2022-08-07T13:45:36;4.50;;;2.83;;
21412;SDS011;10867;45.084;5.732;2022-08-07T13:48:04;3.55;;;2.88;;
21412;SDS011;10867;45.084;5.732;2022-08-07T13:50:32;3.60;;;2.80;;
21412;SDS011;10867;45.084;5.732;2022-08-07T13:52:59;3.78;;;3.00;;
21412;SDS011;10867;45.084;5.732;2022-08-07T13:55:25;3.80;;;2.80;;
21412;SDS011;10867;45.084;5.732;2022-08-07T13:57:58;3.08;;;2.50;;
21412;SDS011;10867;45.084;5.732;2022-08-07T14:00:49;3.28;;;2.88;;
21412;SDS011;10867;45.084;5.732;2022-08-07T14:03:16;3.00;;;2.70;;
21412;SDS011;10867;45.084;5.732;2022-08-07T14:05:44;2.90;;;2.70;;
21412;SDS011;10867;45.084;5.732;2022-08-07T14:08:10;3.08;;;2.78;;
21412;SDS011;10867;45.084;5.732;2022-08-07T14:10:37;3.33;;;2.67;;
21412;SDS011;10867;45.084;5.732;2022-08-07T14:13:05;2.67;;;2.45;;
21412;SDS011;10867;45.084;5.732;2022-08-07T14:15:39;2.97;;;2.75;;
21412;SDS011;10867;45.084;5.732;2022-08-07T14:18:07;3.00;;;2.70;;
21412;SDS011;10867;45.084;5.732;2022-08-07T14:20:38;2.85;;;2.45;;
21412;SDS011;10867;45.084;5.732;2022-08-07T14:23:20;4.68;;;2.58;;
21412;SDS011;10867;45.084;5.732;2022-08-07T14:25:53;4.85;;;2.83;;
21412;SDS011;10867;45.084;5.732;2022-08-07T14:28:20;3.00;;;2.78;;
21412;SDS011;10867;45.084;5.732;2022-08-07T14:30:47;3.17;;;2.88;;
21412;SDS011;10867;45.084;5.732;2022-08-07T14:33:14;3.65;;;2.70;;
21412;SDS011;10867;45.084;5.732;2022-08-07T14:35:40;3.75;;;2.70;;
21412;SDS011;10867;45.084;5.732;2022-08-07T14:38:07;3.17;;;2.87;;
21412;SDS011;10867;45.084;5.732;2022-08-07T14:40:34;3.47;;;2.75;;
21412;SDS011;10867;45.084;5.732;2022-08-07T14:43:07;2.90;;;2.70;;
21412;SDS011;10867;45.084;5.732;2022-08-07T14:48:09;3.97;;;2.90;;
21412;SDS011;10867;45.084;5.732;2022-08-07T14:50:40;5.03;;;3.80;;
21412;SDS011;10867;45.084;5.732;2022-08-07T14:53:06;3.72;;;3.30;;
21412;SDS011;10867;45.084;5.732;2022-08-07T14:55:33;3.80;;;3.10;;
21412;SDS011;10867;45.084;5.732;2022-08-07T14:58:00;4.80;;;3.20;;
21412;SDS011;10867;45.084;5.732;2022-08-07T15:00:28;3.67;;;3.30;;
21412;SDS011;10867;45.084;5.732;2022-08-07T15:02:55;5.67;;;3.70;;
21412;SDS011;10867;45.084;5.732;2022-08-07T15:05:22;5.17;;;3.87;;
21412;SDS011;10867;45.084;5.732;2022-08-07T15:07:49;4.10;;;3.80;;
21412;SDS011;10867;45.084;5.732;2022-08-07T15:10:17;4.20;;;3.90;;
21412;SDS011;10867;45.084;5.732;2022-08-07T15:12:43;4.95;;;4.20;;
21412;SDS011;10867;45.084;5.732;2022-08-07T15:15:11;5.88;;;4.10;;
21412;SDS011;10867;45.084;5.732;2022-08-07T15:17:40;4.88;;;4.00;;
21412;SDS011;10867;45.084;5.732;2022-08-07T15:20:08;5.00;;;3.97;;
21412;SDS011;10867;45.084;5.732;2022-08-07T15:22:44;4.57;;;4.03;;
21412;SDS011;10867;45.084;5.732;2022-08-07T15:25:12;4.47;;;3.83;;
21412;SDS011;10867;45.084;5.732;2022-08-07T15:27:39;7.43;;;4.97;;
21412;SDS011;10867;45.084;5.732;2022-08-07T15:30:07;5.32;;;4.78;;
21412;SDS011;10867;45.084;5.732;2022-08-07T15:32:33;7.60;;;4.65;;
21412;SDS011;10867;45.084;5.732;2022-08-07T15:35:04;4.32;;;3.92;;
21412;SDS011;10867;45.084;5.732;2022-08-07T15:37:33;5.32;;;3.80;;
21412;SDS011;10867;45.084;5.732;2022-08-07T15:40:00;6.10;;;4.05;;
21412;SDS011;10867;45.084;5.732;2022-08-07T15:45:04;5.50;;;5.00;;
21412;SDS011;10867;45.084;5.732;2022-08-07T15:47:32;5.10;;;4.53;;
21412;SDS011;10867;45.084;5.732;2022-08-07T15:49:59;6.35;;;5.00;;
21412;SDS011;10867;45.084;5.732;2022-08-07T15:52:27;10.70;;;5.57;;
21412;SDS011;10867;45.084;5.732;2022-08-07T15:54:54;5.57;;;5.05;;
21412;SDS011;10867;45.084;5.732;2022-08-07T15:57:27;5.80;;;5.20;;
21412;SDS011;10867;45.084;5.732;2022-08-07T15:59:54;7.50;;;5.10;;
21412;SDS011;10867;45.084;5.732;2022-08-07T16:02:22;5.68;;;5.07;;
21412;SDS011;10867;45.084;5.732;2022-08-07T16:05:00;4.85;;;4.45;;
21412;SDS011;10867;45.084;5.732;2022-08-07T16:07:31;4.20;;;3.60;;
21412;SDS011;10867;45.084;5.732;2022-08-07T16:10:10;5.78;;;4.95;;
21412;SDS011;10867;45.084;5.732;2022-08-07T16:30:38;6.37;;;5.53;;
21412;SDS011;10867;45.084;5.732;2022-08-07T16:33:10;6.60;;;6.00;;
21412;SDS011;10867;45.084;5.732;2022-08-07T16:35:40;6.53;;;5.93;;
21412;SDS011;10867;45.084;5.732;2022-08-07T16:51:22;6.40;;;5.80;;
21412;SDS011;10867;45.084;5.732;2022-08-07T16:56:32;6.57;;;5.88;;
21412;SDS011;10867;45.084;5.732;2022-08-07T17:01:35;7.75;;;7.05;;
21412;SDS011;10867;45.084;5.732;2022-08-07T17:06:36;8.23;;;7.43;;
21412;SDS011;10867;45.084;5.732;2022-08-07T17:11:35;7.90;;;7.13;;
21412;SDS011;10867;45.084;5.732;2022-08-07T17:14:09;7.40;;;6.70;;
21412;SDS011;10867;45.084;5.732;2022-08-07T17:16:46;7.70;;;7.00;;
21412;SDS011;10867;45.084;5.732;2022-08-07T17:21:59;7.18;;;6.53;;
21412;SDS011;10867;45.084;5.732;2022-08-07T17:27:04;8.13;;;7.22;;
21412;SDS011;10867;45.084;5.732;2022-08-07T17:30:07;8.43;;;7.63;;
21412;SDS011;10867;45.084;5.732;2022-08-07T17:35:23;8.05;;;7.25;;
21412;SDS011;10867;45.084;5.732;2022-08-07T17:37:58;6.88;;;6.28;;
21412;SDS011;10867;45.084;5.732;2022-08-07T17:43:08;6.77;;;6.13;;
21412;SDS011;10867;45.084;5.732;2022-08-07T17:45:39;5.77;;;4.97;;
21412;SDS011;10867;45.084;5.732;2022-08-07T17:48:10;5.47;;;4.72;;
21412;SDS011;10867;45.084;5.732;2022-08-07T17:50:49;7.53;;;5.72;;
21412;SDS011;10867;45.084;5.732;2022-08-07T17:58:34;5.80;;;5.20;;
21412;SDS011;10867;45.084;5.732;2022-08-07T18:01:12;4.95;;;4.55;;
21412;SDS011;10867;45.084;5.732;2022-08-07T18:03:43;5.30;;;4.75;;
21412;SDS011;10867;45.084;5.732;2022-08-07T18:06:12;4.93;;;4.32;;
21412;SDS011;10867;45.084;5.732;2022-08-07T18:13:53;6.35;;;4.20;;
21412;SDS011;10867;45.084;5.732;2022-08-07T18:16:31;4.57;;;4.00;;
21412;SDS011;10867;45.084;5.732;2022-08-07T18:21:38;4.93;;;3.70;;
21412;SDS011;10867;45.084;5.732;2022-08-07T18:24:26;4.40;;;3.80;;
21412;SDS011;10867;45.084;5.732;2022-08-07T18:29:22;4.22;;;3.83;;
21412;SDS011;10867;45.084;5.732;2022-08-07T18:37:19;3.95;;;3.08;;
21412;SDS011;10867;45.084;5.732;2022-08-07T18:40:14;5.13;;;3.38;;
21412;SDS011;10867;45.084;5.732;2022-08-07T18:45:10;3.90;;;3.50;;
21412;SDS011;10867;45.084;5.732;2022-08-07T18:50:27;4.80;;;3.50;;
21412;SDS011;10867;45.084;5.732;2022-08-07T18:53:07;4.55;;;3.45;;